Time;durP1;ratioP1;P1;durP2;ratioP2;P2;SDS_P1;SDS_P2;PMS_P1;PMS_P2;Temp;Humidity;BMP_temperature;BMP_pressure;BME280_temperature;BME280_humidity;BME280_pressure;Samples;Min_cycle;Max_cycle;Signal;HPM_P1;HPM_P2
2022/07/29 00:02:25;;;;;;;;;;;16.10;99.90;;;;;;5084555;28;20532;-66
2022/07/29 00:04:51;;;;;;;;;;;16.00;99.90;;;;;;5079750;28;19939;-66
2022/07/29 00:07:16;;;;;;;;;;;15.90;99.90;;;;;;5076290;28;20442;-65
2022/07/29 00:09:42;;;;;;;;;;;15.90;99.90;;;;;;5079087;28;19920;-66
2022/07/29 00:12:07;;;;;;;;;;;15.80;99.90;;;;;;5072213;28;19952;-66
2022/07/29 00:14:33;;;;;;;;;;;15.70;99.90;;;;;;5074488;28;19920;-66
2022/07/29 00:16:58;;;;;;;;;;;15.70;99.90;;;;;;5084552;28;19908;-65
2022/07/29 00:19:24;;;;;;;;;;;15.80;99.90;;;;;;5076886;28;19913;-66
2022/07/29 00:21:50;;;;;;;;;;;15.70;99.90;;;;;;5067487;28;19915;-66
2022/07/29 00:24:16;;;;;;;;;;;15.80;99.90;;;;;;5083483;28;19957;-66
2022/07/29 00:26:41;;;;;;;;;;;15.70;99.90;;;;;;5067042;28;19920;-66
2022/07/29 00:29:07;;;;;;;;;;;15.70;99.90;;;;;;5079872;28;19916;-67
2022/07/29 00:31:32;;;;;;;;;;;15.70;99.90;;;;;;5080505;28;19928;-66
2022/07/29 00:33:58;;;;;;;;;;;15.70;99.90;;;;;;5086042;28;19912;-66
2022/07/29 00:36:23;;;;;;;;;;;15.60;99.90;;;;;;5076636;28;20361;-67
2022/07/29 00:38:50;;;;;;;;;;;15.60;99.90;;;;;;5081031;28;19954;-66
2022/07/29 00:41:19;;;;;;;;;;;15.50;99.90;;;;;;5082592;28;20457;-66
2022/07/29 00:43:44;;;;;;;;;;;15.60;99.90;;;;;;5077197;28;20009;-66
2022/07/29 00:46:10;;;;;;;;;;;15.50;99.90;;;;;;5077067;28;20362;-66
2022/07/29 00:48:36;;;;;;;;;;;15.40;99.90;;;;;;5080029;28;19916;-66
2022/07/29 00:51:05;;;;;;;;;;;15.30;99.90;;;;;;5084798;28;19916;-66
2022/07/29 00:53:31;;;;;;;;;;;15.30;99.90;;;;;;5075927;28;20003;-66
2022/07/29 00:55:57;;;;;;;;;;;15.40;99.90;;;;;;5080037;28;20011;-67
2022/07/29 00:58:23;;;;;;;;;;;15.30;99.90;;;;;;5077881;28;19916;-67
2022/07/29 01:00:49;;;;;;;;;;;15.30;99.90;;;;;;5082685;28;19916;-67
2022/07/29 01:03:15;;;;;;;;;;;15.20;99.90;;;;;;5073720;28;19920;-66
2022/07/29 01:05:42;;;;;;;;;;;15.20;99.90;;;;;;5081256;28;19958;-66
2022/07/29 01:08:08;;;;;;;;;;;15.20;99.90;;;;;;5074395;28;19924;-66
2022/07/29 01:10:37;;;;;;;;;;;15.20;99.90;;;;;;5072969;28;20476;-66
2022/07/29 01:13:02;;;;;;;;;;;15.20;99.90;;;;;;5075628;28;19999;-66
2022/07/29 01:15:28;;;;;;;;;;;15.20;99.90;;;;;;5077438;28;20000;-67
2022/07/29 01:18:01;;;;;;;;;;;15.20;99.90;;;;;;5072177;28;19930;-66
2022/07/29 01:20:27;;;;;;;;;;;15.10;99.90;;;;;;5077543;28;20006;-66
2022/07/29 01:23:08;;;;;;;;;;;15.10;99.90;;;;;;5080497;28;20374;-65
2022/07/29 01:25:54;;;;;;;;;;;15.10;99.90;;;;;;5074344;28;19918;-66
2022/07/29 01:28:40;;;;;;;;;;;15.20;99.90;;;;;;5070761;28;19921;-66
2022/07/29 01:31:06;;;;;;;;;;;15.20;99.90;;;;;;5074059;28;19921;-66
2022/07/29 01:33:48;;;;;;;;;;;15.20;99.90;;;;;;5085188;28;19916;-66
2022/07/29 01:36:16;;;;;;;;;;;15.20;99.90;;;;;;5088864;28;20336;-66
2022/07/29 01:38:46;;;;;;;;;;;15.30;99.90;;;;;;5079262;28;19912;-65
2022/07/29 01:41:16;;;;;;;;;;;15.50;99.90;;;;;;5068710;28;19912;-67
2022/07/29 01:43:50;;;;;;;;;;;15.60;99.90;;;;;;5078689;28;19919;-66
2022/07/29 01:46:20;;;;;;;;;;;15.50;99.90;;;;;;5075141;28;19913;-66
2022/07/29 01:48:52;;;;;;;;;;;15.50;99.90;;;;;;5086060;28;19927;-66
2022/07/29 01:51:20;;;;;;;;;;;15.50;99.90;;;;;;5071936;28;19916;-66
2022/07/29 01:53:47;;;;;;;;;;;15.40;99.90;;;;;;5081663;28;20307;-66
2022/07/29 01:56:16;;;;;;;;;;;15.30;99.90;;;;;;5079472;28;19912;-66
2022/07/29 01:58:43;;;;;;;;;;;15.30;99.90;;;;;;5081077;28;19912;-65
2022/07/29 02:01:09;;;;;;;;;;;15.20;99.90;;;;;;5080783;28;19913;-66
2022/07/29 02:03:36;;;;;;;;;;;15.20;99.90;;;;;;5082798;28;19919;-66
2022/07/29 02:06:03;;;;;;;;;;;15.10;99.90;;;;;;5071122;28;20379;-66
2022/07/29 02:08:29;;;;;;;;;;;15.20;99.90;;;;;;5072797;28;19924;-65
2022/07/29 02:10:55;;;;;;;;;;;15.10;99.90;;;;;;5078413;28;19912;-66
2022/07/29 02:13:21;;;;;;;;;;;15.00;99.90;;;;;;5082092;28;20007;-66
2022/07/29 02:15:48;;;;;;;;;;;14.80;99.90;;;;;;5073480;28;19912;-67
2022/07/29 02:18:16;;;;;;;;;;;14.70;99.90;;;;;;5073721;28;19913;-64
2022/07/29 02:20:46;;;;;;;;;;;14.80;99.90;;;;;;5079266;28;19920;-66
2022/07/29 02:23:13;;;;;;;;;;;14.80;99.90;;;;;;5082981;28;19912;-66
2022/07/29 02:25:39;;;;;;;;;;;14.80;99.90;;;;;;5079883;28;19912;-66
2022/07/29 02:28:05;;;;;;;;;;;14.80;99.90;;;;;;5104420;28;19924;-67
2022/07/29 02:30:31;;;;;;;;;;;14.70;99.90;;;;;;5100218;28;19919;-66
2022/07/29 02:32:57;;;;;;;;;;;14.60;99.90;;;;;;5105585;28;19912;-66
2022/07/29 02:35:23;;;;;;;;;;;14.60;99.90;;;;;;5104045;28;19916;-67
2022/07/29 02:38:50;;;;;;;;;;;14.70;99.90;;;;;;5101525;28;19912;-66
2022/07/29 02:40:37;;;;;;;;;;;14.70;99.90;;;;;;5104136;28;19955;-65
2022/07/29 02:43:04;;;;;;;;;;;14.60;99.90;;;;;;5100480;28;20022;-65
2022/07/29 02:45:29;;;;;;;;;;;14.70;99.90;;;;;;5098634;28;20358;-66
2022/07/29 02:47:56;;;;;;;;;;;14.60;99.90;;;;;;5097656;28;19927;-66
2022/07/29 02:50:32;;;;;;;;;;;14.70;99.90;;;;;;5107648;28;19912;-66
2022/07/29 02:53:03;;;;;;;;;;;14.60;99.90;;;;;;5105630;28;20397;-66
2022/07/29 02:55:40;;;;;;;;;;;14.60;99.90;;;;;;5104655;28;19919;-66
2022/07/29 02:58:28;;;;;;;;;;;14.60;99.90;;;;;;5101600;28;20002;-66
2022/07/29 03:00:55;;;;;;;;;;;14.50;99.90;;;;;;5102677;28;20345;-66
2022/07/29 03:03:21;;;;;;;;;;;14.50;99.90;;;;;;5099376;28;20346;-67
2022/07/29 03:05:46;;;;;;;;;;;14.60;99.90;;;;;;5104960;28;19912;-66
2022/07/29 03:08:14;;;;;;;;;;;14.50;99.90;;;;;;5107573;28;19920;-66
2022/07/29 03:10:42;;;;;;;;;;;14.30;99.90;;;;;;5099708;28;19924;-66
2022/07/29 03:13:09;;;;;;;;;;;14.30;99.90;;;;;;5102743;28;20400;-66
2022/07/29 03:15:34;;;;;;;;;;;14.30;99.90;;;;;;5105260;28;19951;-66
2022/07/29 03:18:00;;;;;;;;;;;14.20;99.90;;;;;;5098825;28;19961;-66
2022/07/29 03:20:26;;;;;;;;;;;14.20;99.90;;;;;;5083364;28;19916;-67
2022/07/29 03:22:51;;;;;;;;;;;14.20;99.90;;;;;;5107732;28;19920;-66
2022/07/29 03:25:18;;;;;;;;;;;14.10;99.90;;;;;;5102675;28;19912;-67
2022/07/29 03:27:44;;;;;;;;;;;14.20;99.90;;;;;;5100279;28;19969;-65
2022/07/29 03:30:10;;;;;;;;;;;14.20;99.90;;;;;;5107642;28;19963;-66
2022/07/29 03:32:36;;;;;;;;;;;14.20;99.90;;;;;;5079833;28;20018;-66
2022/07/29 03:35:02;;;;;;;;;;;14.20;99.90;;;;;;5099647;28;19999;-66
2022/07/29 03:37:30;;;;;;;;;;;14.30;99.90;;;;;;5084253;28;19919;-66
2022/07/29 03:39:56;;;;;;;;;;;14.20;99.90;;;;;;5103207;28;19988;-66
2022/07/29 03:42:24;;;;;;;;;;;14.30;99.90;;;;;;5108557;28;20271;-66
2022/07/29 03:44:50;;;;;;;;;;;14.20;99.90;;;;;;5099951;28;19912;-66
2022/07/29 03:47:17;;;;;;;;;;;14.10;99.90;;;;;;5098752;28;19992;-67
2022/07/29 03:49:44;;;;;;;;;;;14.10;99.90;;;;;;5104114;28;19916;-65
2022/07/29 03:52:09;;;;;;;;;;;14.20;99.90;;;;;;5100375;28;19926;-66
2022/07/29 03:54:35;;;;;;;;;;;14.20;99.90;;;;;;5099144;28;19915;-65
2022/07/29 03:57:01;;;;;;;;;;;14.20;99.90;;;;;;5077773;28;19944;-66
2022/07/29 03:59:27;;;;;;;;;;;14.20;99.90;;;;;;5084389;28;19919;-65
2022/07/29 04:01:53;;;;;;;;;;;14.20;99.90;;;;;;5104477;28;19911;-66
2022/07/29 04:04:19;;;;;;;;;;;14.10;99.90;;;;;;5094530;28;19927;-66
2022/07/29 04:06:45;;;;;;;;;;;14.10;99.90;;;;;;5100074;28;19919;-67
2022/07/29 04:09:11;;;;;;;;;;;14.00;99.90;;;;;;5101491;28;19916;-66
2022/07/29 04:11:38;;;;;;;;;;;14.10;99.90;;;;;;5101293;28;19916;-65
2022/07/29 04:14:04;;;;;;;;;;;14.00;99.90;;;;;;5092982;28;20385;-66
2022/07/29 04:16:29;;;;;;;;;;;13.90;99.90;;;;;;5091086;28;19911;-66
2022/07/29 04:18:55;;;;;;;;;;;13.90;99.90;;;;;;5098392;28;19912;-66
2022/07/29 04:21:20;;;;;;;;;;;13.90;99.90;;;;;;5095565;28;20014;-66
2022/07/29 04:23:49;;;;;;;;;;;13.80;99.90;;;;;;5097194;28;19911;-67
2022/07/29 04:26:15;;;;;;;;;;;13.80;99.90;;;;;;5077915;28;19916;-68
2022/07/29 04:28:42;;;;;;;;;;;13.80;99.90;;;;;;5097770;28;20338;-66
2022/07/29 04:31:08;;;;;;;;;;;13.80;99.90;;;;;;5096644;28;20423;-66
2022/07/29 04:33:34;;;;;;;;;;;13.70;99.90;;;;;;5096605;28;19916;-67
2022/07/29 04:35:59;;;;;;;;;;;13.70;99.90;;;;;;5095361;28;19911;-66
2022/07/29 04:38:25;;;;;;;;;;;13.80;99.90;;;;;;5092665;28;19919;-65
2022/07/29 04:40:50;;;;;;;;;;;13.80;99.90;;;;;;5103456;28;19930;-66
2022/07/29 04:43:16;;;;;;;;;;;13.80;99.90;;;;;;5100757;28;19919;-66
2022/07/29 04:45:41;;;;;;;;;;;13.80;99.90;;;;;;5098563;28;19927;-67
2022/07/29 04:48:07;;;;;;;;;;;13.70;99.90;;;;;;5100019;28;19924;-66
2022/07/29 04:50:32;;;;;;;;;;;13.80;99.90;;;;;;5092844;28;19920;-67
2022/07/29 04:52:58;;;;;;;;;;;13.80;99.90;;;;;;5079056;28;19916;-66
2022/07/29 04:55:24;;;;;;;;;;;13.80;99.90;;;;;;5095446;28;19923;-65
2022/07/29 04:57:50;;;;;;;;;;;13.70;99.90;;;;;;5089897;28;19957;-67
2022/07/29 05:00:15;;;;;;;;;;;13.70;99.90;;;;;;5094075;28;19908;-66
2022/07/29 05:02:41;;;;;;;;;;;13.70;99.90;;;;;;5101699;28;19919;-66
2022/07/29 05:05:10;;;;;;;;;;;13.70;99.90;;;;;;5090693;28;19916;-66
2022/07/29 05:07:38;;;;;;;;;;;13.60;99.90;;;;;;5094937;28;19922;-66
2022/07/29 05:10:04;;;;;;;;;;;13.60;99.90;;;;;;5079580;28;20004;-66
2022/07/29 05:12:29;;;;;;;;;;;13.70;99.90;;;;;;5092810;28;20322;-67
2022/07/29 05:14:55;;;;;;;;;;;13.50;99.90;;;;;;5081771;28;19915;-66
2022/07/29 05:17:21;;;;;;;;;;;13.50;99.90;;;;;;5078994;28;19935;-66
2022/07/29 05:19:46;;;;;;;;;;;13.40;99.90;;;;;;5092465;28;19985;-66
2022/07/29 05:22:12;;;;;;;;;;;13.30;99.90;;;;;;5093350;28;20394;-67
2022/07/29 05:24:37;;;;;;;;;;;13.30;99.90;;;;;;5076764;28;20393;-66
2022/07/29 05:27:03;;;;;;;;;;;13.30;99.90;;;;;;5091020;28;20422;-67
2022/07/29 05:29:29;;;;;;;;;;;13.40;99.90;;;;;;5095226;28;20422;-67
2022/07/29 05:31:54;;;;;;;;;;;13.40;99.90;;;;;;5094900;28;20058;-66
2022/07/29 05:34:20;;;;;;;;;;;13.40;99.90;;;;;;5101083;28;20282;-66
2022/07/29 05:36:45;;;;;;;;;;;13.40;99.90;;;;;;5092323;28;20006;-66
2022/07/29 05:39:12;;;;;;;;;;;13.40;99.90;;;;;;5092171;28;19923;-67
2022/07/29 05:41:38;;;;;;;;;;;13.50;99.90;;;;;;5095235;28;20375;-67
2022/07/29 05:44:04;;;;;;;;;;;13.50;99.90;;;;;;5077802;28;19919;-67
2022/07/29 05:46:30;;;;;;;;;;;13.60;99.90;;;;;;5093177;28;20635;-67
2022/07/29 05:48:56;;;;;;;;;;;13.60;99.90;;;;;;5094466;28;19920;-66
2022/07/29 05:51:21;;;;;;;;;;;13.60;99.90;;;;;;5097113;28;20366;-66
2022/07/29 05:53:47;;;;;;;;;;;13.60;99.90;;;;;;5099138;28;19916;-66
2022/07/29 05:56:12;;;;;;;;;;;13.70;99.90;;;;;;5095300;28;20320;-67
2022/07/29 05:58:38;;;;;;;;;;;13.70;99.90;;;;;;5097324;28;19912;-67
2022/07/29 06:01:03;;;;;;;;;;;13.80;99.90;;;;;;5100720;28;19912;-67
2022/07/29 06:03:30;;;;;;;;;;;13.80;99.90;;;;;;5094969;28;20329;-66
2022/07/29 06:05:55;;;;;;;;;;;13.90;99.90;;;;;;5086999;28;19912;-66
2022/07/29 06:08:21;;;;;;;;;;;13.90;99.90;;;;;;5099324;28;19923;-66
2022/07/29 06:10:46;;;;;;;;;;;14.00;99.90;;;;;;5101942;28;19916;-66
2022/07/29 06:13:12;;;;;;;;;;;14.00;99.90;;;;;;5090994;28;19912;-67
2022/07/29 06:15:38;;;;;;;;;;;14.10;99.90;;;;;;5094239;28;19916;-66
2022/07/29 06:18:07;;;;;;;;;;;14.20;99.90;;;;;;5076675;28;20328;-67
2022/07/29 06:20:32;;;;;;;;;;;14.20;99.90;;;;;;5080492;28;19994;-66
2022/07/29 06:22:59;;;;;;;;;;;14.30;99.90;;;;;;5097344;28;20313;-66
2022/07/29 06:25:24;;;;;;;;;;;14.50;99.90;;;;;;5098449;28;19954;-67
2022/07/29 06:27:50;;;;;;;;;;;14.60;99.90;;;;;;5097033;28;19973;-67
2022/07/29 06:30:15;;;;;;;;;;;14.70;99.90;;;;;;5097842;28;20006;-66
2022/07/29 06:32:41;;;;;;;;;;;14.90;99.90;;;;;;5076861;28;19977;-67
2022/07/29 06:35:09;;;;;;;;;;;15.10;99.90;;;;;;5101305;28;19911;-67
2022/07/29 06:37:35;;;;;;;;;;;15.20;99.90;;;;;;5090428;28;19919;-67
2022/07/29 06:42:44;;;;;;;;;;;15.40;99.90;;;;;;5095635;28;21754;-66
2022/07/29 06:45:11;;;;;;;;;;;15.60;99.90;;;;;;5088928;28;19920;-65
2022/07/29 06:47:36;;;;;;;;;;;15.80;99.90;;;;;;5075987;28;19912;-66
2022/07/29 06:50:02;;;;;;;;;;;15.90;99.90;;;;;;5096183;28;20273;-68
2022/07/29 06:52:28;;;;;;;;;;;15.90;99.90;;;;;;5102862;28;19919;-67
2022/07/29 06:54:54;;;;;;;;;;;16.00;99.90;;;;;;5096209;28;19919;-66
2022/07/29 06:57:20;;;;;;;;;;;16.10;99.90;;;;;;5079012;28;19946;-67
2022/07/29 06:59:49;;;;;;;;;;;16.20;99.90;;;;;;5094432;28;20408;-66
2022/07/29 07:02:14;;;;;;;;;;;16.50;99.90;;;;;;5084246;28;19911;-66
2022/07/29 07:04:40;;;;;;;;;;;16.60;99.90;;;;;;5080467;28;20007;-66
2022/07/29 07:07:05;;;;;;;;;;;16.70;99.90;;;;;;5093777;28;20367;-66
2022/07/29 07:09:31;;;;;;;;;;;16.80;99.90;;;;;;5097202;28;19916;-67
2022/07/29 07:11:56;;;;;;;;;;;16.90;99.90;;;;;;5093759;28;19923;-67
2022/07/29 07:14:22;;;;;;;;;;;16.90;99.90;;;;;;5098473;28;19920;-67
2022/07/29 07:16:51;;;;;;;;;;;17.00;99.90;;;;;;5101903;28;19951;-67
2022/07/29 07:19:18;;;;;;;;;;;17.00;99.90;;;;;;5099761;28;19912;-67
2022/07/29 07:21:43;;;;;;;;;;;17.10;99.90;;;;;;5095194;28;20353;-67
2022/07/29 07:24:09;;;;;;;;;;;17.20;99.90;;;;;;5077883;28;19965;-67
2022/07/29 07:26:34;;;;;;;;;;;17.30;99.90;;;;;;5079755;28;19975;-68
2022/07/29 07:29:00;;;;;;;;;;;17.40;99.90;;;;;;5100986;28;19943;-68
2022/07/29 07:31:25;;;;;;;;;;;17.40;99.90;;;;;;5096960;28;19923;-68
2022/07/29 07:33:53;;;;;;;;;;;17.60;99.90;;;;;;5099491;28;19912;-68
2022/07/29 07:36:18;;;;;;;;;;;17.60;99.90;;;;;;5092300;28;19959;-68
2022/07/29 07:38:44;;;;;;;;;;;17.80;99.90;;;;;;5087825;28;19956;-69
2022/07/29 07:41:10;;;;;;;;;;;17.80;99.90;;;;;;5100848;28;19916;-69
2022/07/29 07:43:35;;;;;;;;;;;17.80;99.90;;;;;;5097827;28;20002;-68
2022/07/29 07:46:01;;;;;;;;;;;18.00;99.90;;;;;;5102008;28;19922;-69
2022/07/29 07:48:26;;;;;;;;;;;18.10;99.90;;;;;;5097564;28;20343;-70
2022/07/29 07:50:52;;;;;;;;;;;18.10;99.90;;;;;;5094715;28;19962;-68
2022/07/29 07:53:17;;;;;;;;;;;18.20;99.90;;;;;;5074571;28;19919;-68
2022/07/29 07:55:44;;;;;;;;;;;18.30;99.90;;;;;;5098624;28;20232;-68
2022/07/29 07:58:10;;;;;;;;;;;18.30;99.90;;;;;;5084274;28;20271;-69
2022/07/29 08:00:35;;;;;;;;;;;18.40;99.90;;;;;;5075373;28;20461;-67
2022/07/29 08:03:01;;;;;;;;;;;18.60;99.90;;;;;;5096908;28;20285;-69
2022/07/29 08:05:27;;;;;;;;;;;18.70;99.90;;;;;;5100106;28;19919;-69
2022/07/29 08:07:52;;;;;;;;;;;18.70;99.90;;;;;;5105544;28;20018;-69
2022/07/29 08:10:51;;;;;;;;;;;18.80;99.90;;;;;;5081539;28;19998;-69
2022/07/29 08:13:05;;;;;;;;;;;19.00;99.90;;;;;;5098521;28;19916;-69
2022/07/29 08:15:30;;;;;;;;;;;19.00;99.90;;;;;;5106256;28;19912;-68
2022/07/29 08:17:56;;;;;;;;;;;19.20;99.90;;;;;;5078072;28;20095;-67
2022/07/29 08:20:22;;;;;;;;;;;19.30;99.90;;;;;;5095547;28;19912;-68
2022/07/29 08:22:47;;;;;;;;;;;19.40;99.90;;;;;;5103371;28;20396;-69
2022/07/29 08:25:13;;;;;;;;;;;19.50;99.90;;;;;;5091087;28;19911;-70
2022/07/29 08:27:38;;;;;;;;;;;19.60;99.90;;;;;;5096013;28;19959;-69
2022/07/29 08:30:04;;;;;;;;;;;19.80;99.90;;;;;;5096242;28;19920;-69
2022/07/29 08:32:31;;;;;;;;;;;19.80;99.90;;;;;;5099851;28;19931;-69
2022/07/29 08:34:56;;;;;;;;;;;19.80;99.90;;;;;;5083057;28;19912;-70
2022/07/29 08:37:22;;;;;;;;;;;19.80;99.90;;;;;;5080817;28;19931;-69
2022/07/29 08:39:47;;;;;;;;;;;20.00;99.90;;;;;;5092640;28;20450;-70
2022/07/29 08:42:13;;;;;;;;;;;20.20;99.90;;;;;;5105035;28;19964;-68
2022/07/29 08:44:39;;;;;;;;;;;20.30;99.90;;;;;;5096311;28;19922;-69
2022/07/29 08:47:05;;;;;;;;;;;20.40;99.90;;;;;;5094520;28;19958;-69
2022/07/29 08:49:33;;;;;;;;;;;20.60;99.90;;;;;;5094093;28;19916;-68
2022/07/29 08:51:59;;;;;;;;;;;20.80;99.90;;;;;;5101013;28;19920;-68
2022/07/29 08:54:25;;;;;;;;;;;21.00;99.90;;;;;;5098926;28;20015;-69
2022/07/29 08:56:51;;;;;;;;;;;21.10;99.90;;;;;;5101197;28;20315;-68
2022/07/29 08:59:19;;;;;;;;;;;21.20;99.90;;;;;;5071845;28;19916;-69
2022/07/29 09:01:45;;;;;;;;;;;21.30;99.90;;;;;;5089176;28;19927;-69
2022/07/29 09:04:12;;;;;;;;;;;21.30;98.90;;;;;;5074340;28;20662;-69
2022/07/29 09:06:40;;;;;;;;;;;21.40;96.20;;;;;;5085893;28;20320;-69
2022/07/29 09:09:07;;;;;;;;;;;21.50;95.50;;;;;;5088010;28;19916;-69
2022/07/29 09:11:33;;;;;;;;;;;21.60;89.80;;;;;;5091637;28;20273;-69
2022/07/29 09:13:59;;;;;;;;;;;21.70;90.40;;;;;;5078354;28;19920;-69
2022/07/29 09:16:24;;;;;;;;;;;21.70;88.30;;;;;;5092007;28;19961;-70
2022/07/29 09:18:50;;;;;;;;;;;21.80;88.60;;;;;;5075763;28;19912;-70
2022/07/29 09:24:00;;;;;;;;;;;22.00;86.90;;;;;;5094563;28;19919;-69
2022/07/29 09:26:29;;;;;;;;;;;22.20;84.80;;;;;;5096796;28;19920;-69
2022/07/29 09:28:55;;;;;;;;;;;22.10;85.00;;;;;;5072998;28;19955;-70
2022/07/29 09:31:31;;;;;;;;;;;22.10;81.60;;;;;;5089913;28;20004;-69
2022/07/29 09:33:59;;;;;;;;;;;22.00;80.70;;;;;;5091167;28;20286;-69
2022/07/29 09:36:25;;;;;;;;;;;22.00;80.20;;;;;;5091363;28;19961;-70
2022/07/29 09:38:58;;;;;;;;;;;21.90;80.80;;;;;;5094632;28;19912;-70
2022/07/29 09:41:24;;;;;;;;;;;21.80;80.00;;;;;;5067084;28;19912;-70
2022/07/29 09:43:54;;;;;;;;;;;21.80;80.20;;;;;;5094146;28;19919;-71
2022/07/29 09:46:20;;;;;;;;;;;21.90;82.30;;;;;;5092811;28;19987;-70
2022/07/29 09:49:05;;;;;;;;;;;22.10;77.10;;;;;;5098721;28;19928;-68
2022/07/29 09:51:30;;;;;;;;;;;22.20;77.00;;;;;;5088985;28;19973;-68
2022/07/29 09:53:56;;;;;;;;;;;22.20;75.80;;;;;;5100559;28;19912;-67
2022/07/29 09:56:40;;;;;;;;;;;22.10;76.70;;;;;;5090018;28;20015;-67
2022/07/29 09:59:06;;;;;;;;;;;22.20;76.30;;;;;;5074103;28;20369;-68
2022/07/29 10:01:32;;;;;;;;;;;22.20;77.10;;;;;;5092187;28;19908;-69
2022/07/29 10:03:57;;;;;;;;;;;22.30;78.90;;;;;;5087905;28;19962;-70
2022/07/29 10:06:23;;;;;;;;;;;22.40;76.60;;;;;;5082842;28;19944;-68
2022/07/29 10:08:49;;;;;;;;;;;22.50;74.60;;;;;;5070220;28;19931;-68
2022/07/29 10:11:15;;;;;;;;;;;22.60;72.00;;;;;;5087452;28;19920;-69
2022/07/29 10:13:41;;;;;;;;;;;22.70;69.20;;;;;;5088207;28;19965;-68
2022/07/29 10:16:08;;;;;;;;;;;22.70;69.60;;;;;;5085925;28;19924;-69
2022/07/29 10:18:33;;;;;;;;;;;22.60;69.30;;;;;;5072048;28;19919;-68
2022/07/29 10:21:00;;;;;;;;;;;22.80;68.20;;;;;;5088469;28;19919;-69
2022/07/29 10:23:27;;;;;;;;;;;23.00;67.60;;;;;;5070491;28;20293;-68
2022/07/29 10:25:53;;;;;;;;;;;23.00;68.00;;;;;;5087570;28;19947;-68
2022/07/29 10:28:19;;;;;;;;;;;23.00;68.00;;;;;;5088892;28;20390;-69
2022/07/29 10:30:45;;;;;;;;;;;23.10;67.70;;;;;;5091873;28;19916;-68
2022/07/29 10:33:23;;;;;;;;;;;23.20;68.00;;;;;;5087614;28;20433;-68
2022/07/29 10:36:08;;;;;;;;;;;23.10;66.40;;;;;;5068328;28;19912;-68
2022/07/29 10:38:44;;;;;;;;;;;23.10;66.30;;;;;;5092794;28;20002;-69
2022/07/29 10:41:29;;;;;;;;;;;23.20;65.80;;;;;;5078076;28;20285;-67
2022/07/29 10:43:57;;;;;;;;;;;23.20;65.60;;;;;;5092699;28;19957;-67
2022/07/29 10:46:23;;;;;;;;;;;23.40;65.10;;;;;;5087199;28;19922;-67
2022/07/29 10:49:04;;;;;;;;;;;23.30;64.00;;;;;;5091566;28;19989;-69
2022/07/29 10:51:48;;;;;;;;;;;23.30;63.90;;;;;;5092126;28;20003;-68
2022/07/29 10:54:14;;;;;;;;;;;23.30;63.80;;;;;;5091850;28;19919;-68
2022/07/29 10:56:40;;;;;;;;;;;23.20;64.80;;;;;;5094124;28;20015;-68
2022/07/29 10:59:18;;;;;;;;;;;23.30;63.90;;;;;;5092348;28;19918;-67
2022/07/29 11:01:43;;;;;;;;;;;23.50;64.60;;;;;;5092562;28;20324;-69
2022/07/29 11:04:09;;;;;;;;;;;23.60;62.80;;;;;;5097601;28;19916;-69
2022/07/29 11:07:04;;;;;;;;;;;23.50;62.50;;;;;;5091162;28;19920;-69
2022/07/29 11:09:30;;;;;;;;;;;23.70;62.90;;;;;;5088003;28;19935;-69
2022/07/29 11:11:56;;;;;;;;;;;23.70;63.40;;;;;;5093508;28;19912;-70
2022/07/29 11:14:40;;;;;;;;;;;23.90;59.60;;;;;;5095638;28;20005;-69
2022/07/29 11:17:07;;;;;;;;;;;24.20;59.10;;;;;;5071801;28;19958;-69
2022/07/29 11:19:33;;;;;;;;;;;24.20;57.60;;;;;;5084408;28;20077;-67
2022/07/29 11:21:59;;;;;;;;;;;24.20;58.70;;;;;;5085438;28;19939;-68
2022/07/29 11:24:30;;;;;;;;;;;24.10;58.00;;;;;;5072950;28;19923;-67
2022/07/29 11:27:06;;;;;;;;;;;24.00;57.60;;;;;;5074806;28;19935;-69
2022/07/29 11:29:32;;;;;;;;;;;23.80;57.50;;;;;;5077773;28;20390;-68
2022/07/29 11:32:15;;;;;;;;;;;23.90;57.50;;;;;;5055571;28;20306;-66
2022/07/29 11:34:41;;;;;;;;;;;24.00;57.90;;;;;;5062290;28;19913;-67
2022/07/29 11:37:06;;;;;;;;;;;24.20;57.00;;;;;;5081419;28;19912;-68
2022/07/29 11:39:33;;;;;;;;;;;24.30;56.60;;;;;;5074404;28;19924;-68
2022/07/29 11:42:17;;;;;;;;;;;24.40;55.60;;;;;;5067016;28;19912;-68
2022/07/29 11:44:56;;;;;;;;;;;24.50;54.10;;;;;;5077409;28;20270;-67
2022/07/29 11:47:22;;;;;;;;;;;24.50;54.70;;;;;;5079502;28;19920;-68
2022/07/29 11:49:48;;;;;;;;;;;24.50;54.00;;;;;;5064293;28;20395;-66
2022/07/29 11:52:14;;;;;;;;;;;24.50;54.20;;;;;;5079904;28;19947;-66
2022/07/29 11:54:45;;;;;;;;;;;24.30;55.30;;;;;;5065672;28;19916;-67
2022/07/29 11:57:10;;;;;;;;;;;24.30;54.50;;;;;;5061143;28;19947;-68
2022/07/29 11:59:41;;;;;;;;;;;24.30;54.60;;;;;;5081347;28;20338;-67
2022/07/29 12:02:07;;;;;;;;;;;24.40;55.10;;;;;;5079516;28;20007;-68
2022/07/29 12:04:32;;;;;;;;;;;24.50;55.30;;;;;;5080888;28;19999;-70
2022/07/29 12:06:58;;;;;;;;;;;24.50;54.70;;;;;;5074976;28;19927;-67
2022/07/29 12:09:24;;;;;;;;;;;24.70;55.40;;;;;;5076905;28;19927;-68
2022/07/29 12:11:56;;;;;;;;;;;25.00;55.30;;;;;;5057399;28;20395;-69
2022/07/29 12:14:28;;;;;;;;;;;24.90;53.10;;;;;;5062665;28;19920;-69
2022/07/29 12:16:54;;;;;;;;;;;24.90;53.50;;;;;;5080172;28;20383;-69
2022/07/29 12:19:19;;;;;;;;;;;24.60;53.20;;;;;;5075308;28;20003;-68
2022/07/29 12:21:49;;;;;;;;;;;24.60;54.90;;;;;;5075442;28;19955;-69
2022/07/29 12:24:15;;;;;;;;;;;24.80;53.30;;;;;;5062332;28;19920;-69
2022/07/29 12:26:53;;;;;;;;;;;25.00;52.70;;;;;;5082012;28;19939;-70
2022/07/29 12:29:19;;;;;;;;;;;25.00;53.10;;;;;;5099820;28;20322;-68
2022/07/29 12:31:46;;;;;;;;;;;25.10;52.40;;;;;;5076272;28;20302;-67
2022/07/29 12:34:15;;;;;;;;;;;25.20;51.60;;;;;;5082546;28;19975;-69
2022/07/29 12:36:42;;;;;;;;;;;25.30;53.00;;;;;;5097431;28;19913;-69
2022/07/29 12:39:09;;;;;;;;;;;25.40;52.40;;;;;;5092563;28;20274;-67
2022/07/29 12:41:35;;;;;;;;;;;25.40;51.70;;;;;;5093002;28;19920;-70
2022/07/29 12:44:01;;;;;;;;;;;25.40;52.60;;;;;;5077142;28;19919;-67
2022/07/29 12:46:26;;;;;;;;;;;25.50;51.00;;;;;;5095744;28;19912;-69
2022/07/29 12:48:57;;;;;;;;;;;25.30;50.60;;;;;;5096065;28;19916;-68
2022/07/29 12:51:33;;;;;;;;;;;25.10;51.10;;;;;;5095800;28;19922;-67
2022/07/29 12:54:17;;;;;;;;;;;24.90;50.60;;;;;;5095232;28;19978;-67
2022/07/29 12:56:43;;;;;;;;;;;24.90;50.50;;;;;;5082843;28;19959;-69
2022/07/29 12:59:11;;;;;;;;;;;25.10;50.70;;;;;;5094185;28;22050;-68
2022/07/29 13:01:37;;;;;;;;;;;25.30;49.50;;;;;;5095600;28;20010;-68
2022/07/29 13:04:04;;;;;;;;;;;25.60;52.70;;;;;;5093850;28;19994;-69
2022/07/29 13:06:35;;;;;;;;;;;25.70;47.60;;;;;;5077358;28;19983;-70
2022/07/29 13:09:05;;;;;;;;;;;25.50;47.00;;;;;;5100154;28;20370;-69
2022/07/29 13:11:32;;;;;;;;;;;25.50;51.50;;;;;;5095607;28;19916;-69
2022/07/29 13:13:58;;;;;;;;;;;25.60;51.40;;;;;;5096650;28;19912;-68
2022/07/29 13:16:23;;;;;;;;;;;25.60;48.10;;;;;;5097721;28;19918;-69
2022/07/29 13:19:02;;;;;;;;;;;25.70;48.80;;;;;;5096696;28;20007;-69
2022/07/29 13:21:28;;;;;;;;;;;26.00;47.40;;;;;;5091291;28;19911;-69
2022/07/29 13:23:53;;;;;;;;;;;26.10;46.70;;;;;;5075861;28;19961;-67
2022/07/29 13:26:19;;;;;;;;;;;25.90;46.90;;;;;;5073365;28;19920;-68
2022/07/29 13:28:45;;;;;;;;;;;25.70;47.50;;;;;;5072597;28;20378;-67
2022/07/29 13:31:10;;;;;;;;;;;25.70;46.90;;;;;;5097500;28;19966;-68
2022/07/29 13:33:36;;;;;;;;;;;25.70;46.80;;;;;;5096437;28;19912;-68
2022/07/29 13:36:02;;;;;;;;;;;26.00;46.80;;;;;;5094768;28;19959;-68
2022/07/29 13:38:27;;;;;;;;;;;25.80;46.30;;;;;;5095284;28;19911;-68
2022/07/29 13:40:53;;;;;;;;;;;25.80;47.10;;;;;;5097951;28;19923;-68
2022/07/29 13:43:19;;;;;;;;;;;26.00;46.90;;;;;;5075208;28;19916;-67
2022/07/29 13:45:44;;;;;;;;;;;26.00;46.60;;;;;;5084670;28;19969;-70
2022/07/29 13:48:10;;;;;;;;;;;26.20;45.80;;;;;;5094407;28;19983;-71
2022/07/29 13:50:36;;;;;;;;;;;26.50;46.00;;;;;;5099003;28;19927;-70
2022/07/29 13:53:02;;;;;;;;;;;26.60;45.60;;;;;;5079207;28;19920;-68
2022/07/29 13:55:27;;;;;;;;;;;26.60;44.60;;;;;;5088689;28;20010;-68
2022/07/29 13:57:53;;;;;;;;;;;26.60;44.70;;;;;;5069833;28;19919;-67
2022/07/29 14:00:19;;;;;;;;;;;26.60;45.80;;;;;;5090113;28;20362;-70
2022/07/29 14:02:44;;;;;;;;;;;26.70;45.70;;;;;;5093730;28;19919;-71
2022/07/29 14:05:10;;;;;;;;;;;26.70;43.90;;;;;;5098349;28;19919;-69
2022/07/29 14:07:38;;;;;;;;;;;26.90;44.10;;;;;;5093400;28;20108;-70
2022/07/29 14:10:04;;;;;;;;;;;26.80;43.40;;;;;;5087129;28;20392;-71
2022/07/29 14:12:30;;;;;;;;;;;26.70;44.20;;;;;;5094625;28;20385;-68
2022/07/29 14:14:56;;;;;;;;;;;27.00;44.20;;;;;;5095322;28;19964;-70
2022/07/29 14:17:22;;;;;;;;;;;27.10;43.70;;;;;;5095877;28;19923;-68
2022/07/29 14:19:47;;;;;;;;;;;27.20;44.30;;;;;;5089864;28;19997;-69
2022/07/29 14:22:13;;;;;;;;;;;27.30;44.40;;;;;;5099403;28;19938;-69
2022/07/29 14:24:39;;;;;;;;;;;27.40;47.40;;;;;;5075984;28;20331;-69